Time,TemperatureF,DewpointF,PressureIn,WindDirection,WindDirectionDegrees,WindSpeedMPH,WindSpeedGustMPH,Humidity,HourlyPrecipIn,Conditions,Clouds,dailyrainin,SoftwareType,DateUTC
2013-08-12 00:03:00,73.4,62.6,30.07,SSE,157,0.0,3.0,69,0.00,,,-99.99,WeatherLink 5.7,2013-08-12 04:03:00,
2013-08-12 00:13:00,73.4,63.0,30.08,SSE,157,1.0,5.0,70,0.00,,,-99.99,WeatherLink 5.7,2013-08-12 04:13:00,
2013-08-12 00:23:00,73.5,63.5,30.08,SSE,157,1.0,5.0,71,0.00,,,-99.99,WeatherLink 5.7,2013-08-12 04:23:00,
2013-08-12 00:33:00,73.3,63.3,30.08,SSE,157,1.0,5.0,71,0.00,,,-99.99,WeatherLink 5.7,2013-08-12 04:33:00,
2013-08-12 00:43:00,73.3,63.7,30.08,SSE,157,0.0,3.0,72,0.00,,,-99.99,WeatherLink 5.7,2013-08-12 04:43:00,
2013-08-12 00:53:00,73.2,64.4,30.08,SSE,157,1.0,5.0,74,0.00,,,-99.99,WeatherLink 5.7,2013-08-12 04:53:00,
2013-08-12 01:03:00,72.9,64.9,30.07,South,180,0.0,2.0,76,0.00,,,-99.99,WeatherLink 5.7,2013-08-12 05:03:00,
2013-08-12 01:13:00,72.8,65.5,30.07,South,180,0.0,4.0,78,0.00,,,-99.99,WeatherLink 5.7,2013-08-12 05:13:00,
2013-08-12 01:23:00,72.7,65.4,30.07,South,180,0.0,4.0,78,0.00,,,-99.99,WeatherLink 5.7,2013-08-12 05:23:00,
2013-08-12 01:33:00,72.6,65.7,30.07,South,180,0.0,2.0,79,0.00,,,-99.99,WeatherLink 5.7,2013-08-12 05:33:00,
2013-08-12 01:43:00,72.5,66.0,30.07,North,-999,0.0,1.0,80,0.00,,,-99.99,WeatherLink 5.7,2013-08-12 05:43:00,
2013-08-12 01:53:00,72.3,65.8,30.07,South,180,1.0,4.0,80,0.00,,,-99.99,WeatherLink 5.7,2013-08-12 05:53:00,
2013-08-12 02:03:00,72.1,65.9,30.06,South,180,1.0,3.0,81,0.00,,,-99.99,WeatherLink 5.7,2013-08-12 06:03:00,
2013-08-12 02:13:00,72.1,65.9,30.07,South,180,0.0,4.0,81,0.00,,,-99.99,WeatherLink 5.7,2013-08-12 06:13:00,
2013-08-12 02:23:00,71.9,66.1,30.06,South,180,0.0,2.0,82,0.00,,,-99.99,WeatherLink 5.7,2013-08-12 06:23:00,
2013-08-12 02:34:00,71.6,66.2,30.07,South,180,0.0,3.0,83,0.00,,,-99.99,WeatherLink 5.7,2013-08-12 06:34:00,
2013-08-12 02:44:00,71.4,66.0,30.07,South,180,0.0,2.0,83,0.00,,,-99.99,WeatherLink 5.7,2013-08-12 06:44:00,
2013-08-12 02:54:00,71.5,66.1,30.06,South,180,0.0,2.0,83,0.00,,,-99.99,WeatherLink 5.7,2013-08-12 06:54:00,
2013-08-12 03:03:00,71.5,66.1,30.06,South,180,0.0,2.0,83,0.00,,,-99.99,WeatherLink 5.7,2013-08-12 07:03:00,
2013-08-12 03:14:00,71.6,66.2,30.06,South,180,0.0,1.0,83,0.00,,,-99.99,WeatherLink 5.7,2013-08-12 07:14:00,
2013-08-12 03:23:00,71.6,65.8,30.06,South,180,0.0,1.0,82,0.00,,,-99.99,WeatherLink 5.7,2013-08-12 07:23:00,
2013-08-12 03:33:00,71.6,66.2,30.05,North,-999,0.0,0.0,83,0.00,,,-99.99,WeatherLink 5.7,2013-08-12 07:33:00,
2013-08-12 03:43:00,71.5,66.1,30.06,South,180,0.0,2.0,83,0.00,,,-99.99,WeatherLink 5.7,2013-08-12 07:43:00,
2013-08-12 03:53:00,71.5,66.1,30.05,South,180,1.0,3.0,83,0.00,,,-99.99,WeatherLink 5.7,2013-08-12 07:53:00,
2013-08-12 04:03:00,71.7,65.9,30.04,South,180,0.0,2.0,82,0.00,,,-99.99,WeatherLink 5.7,2013-08-12 08:03:00,
2013-08-12 04:13:00,71.7,66.3,30.04,South,180,0.0,3.0,83,0.00,,,-99.99,WeatherLink 5.7,2013-08-12 08:13:00,
2013-08-12 04:23:00,71.6,66.2,30.05,South,180,0.0,1.0,83,0.00,,,-99.99,WeatherLink 5.7,2013-08-12 08:23:00,
2013-08-12 04:33:00,71.4,66.3,30.04,South,180,0.0,2.0,84,0.00,,,-99.99,WeatherLink 5.7,2013-08-12 08:33:00,
2013-08-12 04:43:00,71.4,66.0,30.04,South,180,0.0,2.0,83,0.00,,,-99.99,WeatherLink 5.7,2013-08-12 08:43:00,
2013-08-12 04:53:00,71.2,66.1,30.04,South,180,0.0,2.0,84,0.00,,,-99.99,WeatherLink 5.7,2013-08-12 08:53:00,
2013-08-12 05:03:00,71.1,66.0,30.04,South,180,0.0,1.0,84,0.00,,,-99.99,WeatherLink 5.7,2013-08-12 09:03:00,
2013-08-12 05:13:00,71.1,66.0,30.04,South,180,0.0,2.0,84,0.00,,,-99.99,WeatherLink 5.7,2013-08-12 09:13:00,
2013-08-12 05:23:00,71.1,66.0,30.04,South,180,0.0,2.0,84,0.00,,,-99.99,WeatherLink 5.7,2013-08-12 09:23:00,
2013-08-12 05:33:00,71.2,66.1,30.04,South,180,0.0,2.0,84,0.00,,,-99.99,WeatherLink 5.7,2013-08-12 09:33:00,
2013-08-12 05:43:00,71.4,66.3,30.04,South,180,1.0,3.0,84,0.00,,,-99.99,WeatherLink 5.7,2013-08-12 09:43:00,
2013-08-12 05:53:00,71.2,66.1,30.04,South,180,1.0,2.0,84,0.00,,,-99.99,WeatherLink 5.7,2013-08-12 09:53:00,
2013-08-12 06:03:00,71.0,65.9,30.05,South,180,1.0,3.0,84,0.00,,,-99.99,WeatherLink 5.7,2013-08-12 10:03:00,
2013-08-12 06:13:00,70.9,65.8,30.05,South,180,1.0,3.0,84,0.00,,,-99.99,WeatherLink 5.7,2013-08-12 10:13:00,
2013-08-12 06:23:00,71.0,65.9,30.05,South,180,2.0,4.0,84,0.00,,,-99.99,WeatherLink 5.7,2013-08-12 10:23:00,
2013-08-12 06:33:00,71.0,66.3,30.06,South,180,2.0,5.0,85,0.07,,,-99.99,WeatherLink 5.7,2013-08-12 10:33:00,
2013-08-12 06:43:00,70.4,67.0,30.06,South,180,2.0,8.0,89,0.27,,,-99.99,WeatherLink 5.7,2013-08-12 10:43:00,
2013-08-12 06:53:00,69.5,67.1,30.06,WNW,292,3.0,9.0,92,0.36,,,-99.99,WeatherLink 5.7,2013-08-12 10:53:00,
2013-08-12 07:03:00,68.8,66.7,30.07,NW,315,2.0,6.0,93,0.39,,,-99.99,WeatherLink 5.7,2013-08-12 11:03:00,
2013-08-12 07:13:00,68.7,66.9,30.06,NW,315,1.0,3.0,94,0.40,,,-99.99,WeatherLink 5.7,2013-08-12 11:13:00,
2013-08-12 07:23:00,68.7,67.2,30.06,NW,315,1.0,5.0,95,0.40,,,-99.99,WeatherLink 5.7,2013-08-12 11:23:00,
2013-08-12 07:33:00,68.8,67.6,30.05,NW,315,2.0,5.0,96,0.34,,,-99.99,WeatherLink 5.7,2013-08-12 11:33:00,
2013-08-12 07:43:00,68.8,67.6,30.05,NW,315,0.0,3.0,96,0.14,,,-99.99,WeatherLink 5.7,2013-08-12 11:43:00,
2013-08-12 07:53:00,68.9,67.7,30.06,NW,315,1.0,4.0,96,0.05,,,-99.99,WeatherLink 5.7,2013-08-12 11:53:00,
2013-08-12 08:03:00,68.9,67.1,30.06,NW,315,2.0,7.0,94,0.02,,,-99.99,WeatherLink 5.7,2013-08-12 12:03:00,
2013-08-12 08:13:00,69.0,66.3,30.06,NW,315,1.0,4.0,91,0.01,,,-99.99,WeatherLink 5.7,2013-08-12 12:13:00,
2013-08-12 08:23:00,69.3,65.6,30.06,NW,315,2.0,4.0,88,0.01,,,-99.99,WeatherLink 5.7,2013-08-12 12:23:00,
2013-08-12 08:33:00,69.6,64.9,30.06,NW,315,1.0,5.0,85,0.00,,,-99.99,WeatherLink 5.7,2013-08-12 12:33:00,
2013-08-12 08:43:00,69.7,64.0,30.06,NW,315,1.0,3.0,82,0.00,,,-99.99,WeatherLink 5.7,2013-08-12 12:43:00,
2013-08-12 08:53:00,70.1,64.0,30.05,North,-999,0.0,0.0,81,0.00,,,-99.99,WeatherLink 5.7,2013-08-12 12:53:00,
2013-08-12 09:03:00,70.5,64.0,30.05,NW,315,0.0,2.0,80,0.00,,,-99.99,WeatherLink 5.7,2013-08-12 13:03:00,
2013-08-12 09:13:00,70.9,63.0,30.05,NW,315,1.0,3.0,76,0.00,,,-99.99,WeatherLink 5.7,2013-08-12 13:13:00,
2013-08-12 09:23:00,71.4,63.4,30.06,NW,315,1.0,3.0,76,0.00,,,-99.99,WeatherLink 5.7,2013-08-12 13:23:00,
2013-08-12 09:33:00,71.9,63.9,30.05,NW,315,0.0,3.0,76,0.00,,,-99.99,WeatherLink 5.7,2013-08-12 13:33:00,
2013-08-12 09:43:00,72.1,63.0,30.06,NW,315,0.0,4.0,73,0.00,,,-99.99,WeatherLink 5.7,2013-08-12 13:43:00,
2013-08-12 09:53:00,71.9,63.2,30.07,NW,315,1.0,3.0,74,0.00,,,-99.99,WeatherLink 5.7,2013-08-12 13:53:00,
2013-08-12 10:03:00,71.8,63.4,30.06,NW,315,2.0,4.0,75,0.00,,,-99.99,WeatherLink 5.7,2013-08-12 14:03:00,
2013-08-12 10:13:00,71.6,64.0,30.06,NW,315,0.0,3.0,77,0.00,,,-99.99,WeatherLink 5.7,2013-08-12 14:13:00,
2013-08-12 10:23:00,71.6,63.6,30.06,NW,315,1.0,4.0,76,0.00,,,-99.99,WeatherLink 5.7,2013-08-12 14:23:00,
2013-08-12 10:33:00,71.7,63.7,30.06,NW,315,2.0,5.0,76,0.00,,,-99.99,WeatherLink 5.7,2013-08-12 14:33:00,
2013-08-12 10:43:00,71.7,63.7,30.05,NW,315,2.0,6.0,76,0.00,,,-99.99,WeatherLink 5.7,2013-08-12 14:43:00,
2013-08-12 10:53:00,72.2,63.4,30.05,NW,315,2.0,5.0,74,0.00,,,-99.99,WeatherLink 5.7,2013-08-12 14:53:00,
2013-08-12 11:03:00,72.7,63.1,30.05,NW,315,2.0,5.0,72,0.00,,,-99.99,WeatherLink 5.7,2013-08-12 15:03:00,
2013-08-12 11:13:00,73.0,63.4,30.05,NW,315,1.0,4.0,72,0.00,,,-99.99,WeatherLink 5.7,2013-08-12 15:13:00,
2013-08-12 11:23:00,73.3,62.1,30.05,NW,315,1.0,4.0,68,0.00,,,-99.99,WeatherLink 5.7,2013-08-12 15:23:00,
2013-08-12 11:33:00,73.2,63.2,30.05,NW,315,2.0,4.0,71,0.00,,,-99.99,WeatherLink 5.7,2013-08-12 15:33:00,
2013-08-12 11:43:00,73.3,62.9,30.05,NW,315,1.0,3.0,70,0.00,,,-99.99,WeatherLink 5.7,2013-08-12 15:43:00,
2013-08-12 11:53:00,73.9,62.7,30.05,NW,315,1.0,4.0,68,0.00,,,-99.99,WeatherLink 5.7,2013-08-12 15:53:00,
2013-08-12 12:03:00,74.2,62.5,30.04,NW,315,1.0,3.0,67,0.00,,,-99.99,WeatherLink 5.7,2013-08-12 16:03:00,
2013-08-12 12:13:00,74.5,62.8,30.05,NW,315,0.0,3.0,67,0.00,,,-99.99,WeatherLink 5.7,2013-08-12 16:13:00,
2013-08-12 12:23:00,75.0,62.9,30.04,NW,315,1.0,4.0,66,0.00,,,-99.99,WeatherLink 5.7,2013-08-12 16:23:00,
2013-08-12 12:33:00,75.2,63.1,30.04,NW,315,1.0,3.0,66,0.00,,,-99.99,WeatherLink 5.7,2013-08-12 16:33:00,
2013-08-12 12:43:00,75.7,62.7,30.03,NW,315,1.0,5.0,64,0.00,,,-99.99,WeatherLink 5.7,2013-08-12 16:43:00,
2013-08-12 12:53:00,75.8,62.3,30.03,NNW,337,3.0,7.0,63,0.00,,,-99.99,WeatherLink 5.7,2013-08-12 16:53:00,
2013-08-12 13:03:00,76.2,62.7,30.03,NNE,22,2.0,6.0,63,0.00,,,-99.99,WeatherLink 5.7,2013-08-12 17:03:00,
2013-08-12 13:13:00,76.3,61.4,30.03,NNE,22,2.0,5.0,60,0.00,,,-99.99,WeatherLink 5.7,2013-08-12 17:13:00,
2013-08-12 13:23:00,76.9,61.5,30.03,NE,45,2.0,5.0,59,0.00,,,-99.99,WeatherLink 5.7,2013-08-12 17:23:00,
2013-08-12 13:33:00,77.1,60.2,30.03,NE,45,2.0,5.0,56,0.00,,,-99.99,WeatherLink 5.7,2013-08-12 17:33:00,
2013-08-12 13:43:00,77.2,60.8,30.02,NE,45,1.0,5.0,57,0.00,,,-99.99,WeatherLink 5.7,2013-08-12 17:43:00,
2013-08-12 13:53:00,78.0,60.0,30.03,NE,45,0.0,5.0,54,0.00,,,-99.99,WeatherLink 5.7,2013-08-12 17:53:00,
2013-08-12 14:03:00,78.4,59.9,30.03,NE,45,0.0,1.0,53,0.00,,,-99.99,WeatherLink 5.7,2013-08-12 18:03:00,
2013-08-12 14:13:00,78.8,59.7,30.02,NE,45,2.0,5.0,52,0.00,,,-99.99,WeatherLink 5.7,2013-08-12 18:13:00,
2013-08-12 14:23:00,78.7,60.1,30.02,ENE,67,2.0,5.0,53,0.00,,,-99.99,WeatherLink 5.7,2013-08-12 18:23:00,
2013-08-12 14:33:00,79.2,60.6,30.02,ENE,67,1.0,5.0,53,0.00,,,-99.99,WeatherLink 5.7,2013-08-12 18:33:00,
2013-08-12 14:43:00,80.0,59.7,30.01,ENE,67,1.0,3.0,50,0.00,,,-99.99,WeatherLink 5.7,2013-08-12 18:43:00,
2013-08-12 14:53:00,80.2,59.9,30.01,East,90,3.0,7.0,50,0.00,,,-99.99,WeatherLink 5.7,2013-08-12 18:53:00,
2013-08-12 15:03:00,80.3,60.0,30.01,ESE,112,1.0,6.0,50,0.00,,,-99.99,WeatherLink 5.7,2013-08-12 19:03:00,
2013-08-12 15:13:00,81.1,59.6,30.01,SE,135,2.0,5.0,48,0.00,,,-99.99,WeatherLink 5.7,2013-08-12 19:13:00,
2013-08-12 15:23:00,81.3,59.1,30.01,SE,135,1.0,5.0,47,0.00,,,-99.99,WeatherLink 5.7,2013-08-12 19:23:00,
2013-08-12 15:33:00,81.5,58.1,30.01,SE,135,1.0,5.0,45,0.00,,,-99.99,WeatherLink 5.7,2013-08-12 19:33:00,
2013-08-12 15:43:00,81.6,58.8,30.00,SSE,157,2.0,5.0,46,0.00,,,-99.99,WeatherLink 5.7,2013-08-12 19:43:00,
2013-08-12 15:53:00,81.9,57.8,30.00,SSE,157,1.0,5.0,44,0.00,,,-99.99,WeatherLink 5.7,2013-08-12 19:53:00,
2013-08-12 16:03:00,81.8,59.0,29.99,SSE,157,1.0,4.0,46,0.00,,,-99.99,WeatherLink 5.7,2013-08-12 20:03:00,
2013-08-12 16:13:00,82.1,56.7,29.99,SSE,157,0.0,3.0,42,0.00,,,-99.99,WeatherLink 5.7,2013-08-12 20:13:00,
2013-08-12 16:23:00,82.4,58.9,29.99,SSE,157,1.0,7.0,45,0.00,,,-99.99,WeatherLink 5.7,2013-08-12 20:23:00,
2013-08-12 16:33:00,82.4,58.9,29.99,South,180,1.0,5.0,45,0.00,,,-99.99,WeatherLink 5.7,2013-08-12 20:33:00,
2013-08-12 16:43:00,83.0,63.0,29.99,SSW,202,2.0,8.0,51,0.00,,,-99.99,WeatherLink 5.7,2013-08-12 20:43:00,
2013-08-12 16:53:00,82.0,64.2,29.99,South,180,3.0,8.0,55,0.00,,,-99.99,WeatherLink 5.7,2013-08-12 20:53:00,
2013-08-12 17:03:00,80.9,63.7,29.99,South,180,2.0,6.0,56,0.00,,,-99.99,WeatherLink 5.7,2013-08-12 21:03:00,
2013-08-12 17:13:00,80.4,63.8,29.98,SSE,157,2.0,7.0,57,0.00,,,-99.99,WeatherLink 5.7,2013-08-12 21:13:00,
2013-08-12 17:23:00,79.9,63.3,29.98,SE,135,3.0,9.0,57,0.00,,,-99.99,WeatherLink 5.7,2013-08-12 21:23:00,
2013-08-12 17:33:00,80.1,63.0,29.98,SSE,157,2.0,7.0,56,0.00,,,-99.99,WeatherLink 5.7,2013-08-12 21:33:00,
2013-08-12 17:43:00,79.9,63.3,29.98,South,180,2.0,7.0,57,0.00,,,-99.99,WeatherLink 5.7,2013-08-12 21:43:00,
2013-08-12 17:53:00,79.9,63.3,29.98,SSE,157,1.0,4.0,57,0.00,,,-99.99,WeatherLink 5.7,2013-08-12 21:53:00,
2013-08-12 18:03:00,79.7,64.1,29.97,SSE,157,1.0,7.0,59,0.00,,,-99.99,WeatherLink 5.7,2013-08-12 22:03:00,
2013-08-12 18:13:00,79.7,64.6,29.97,SSE,157,2.0,5.0,60,0.00,,,-99.99,WeatherLink 5.7,2013-08-12 22:13:00,
2013-08-12 18:23:00,79.5,63.9,29.97,SSE,157,1.0,5.0,59,0.00,,,-99.99,WeatherLink 5.7,2013-08-12 22:23:00,
2013-08-12 18:33:00,79.3,63.7,29.97,SSE,157,1.0,5.0,59,0.00,,,-99.99,WeatherLink 5.7,2013-08-12 22:33:00,
2013-08-12 18:43:00,79.4,63.3,29.97,South,180,1.0,4.0,58,0.00,,,-99.99,WeatherLink 5.7,2013-08-12 22:43:00,
2013-08-12 18:53:00,79.3,63.7,29.97,South,180,1.0,5.0,59,0.00,,,-99.99,WeatherLink 5.7,2013-08-12 22:53:00,
2013-08-12 19:03:00,79.1,63.5,29.97,South,180,1.0,5.0,59,0.00,,,-99.99,WeatherLink 5.7,2013-08-12 23:03:00,